Time;durP1;ratioP1;P1;durP2;ratioP2;P2;SDS_P1;SDS_P2;PMS_P1;PMS_P2;Temp;Humidity;BMP_temperature;BMP_pressure;BME280_temperature;BME280_humidity;BME280_pressure;Samples;Min_cycle;Max_cycle;Signal;HPM_P1;HPM_P2
2022/12/15 00:41:08;;;;;;;2.20;1.60;;;;;;;;;;5090546;28;20512;-46
2022/12/15 00:43:35;;;;;;;2.35;2.00;;;;;;;;;;5090166;28;20170;-47
2022/12/15 00:48:46;;;;;;;2.28;2.08;;;;;;;;;;5090107;28;20062;-50
2022/12/15 00:51:12;;;;;;;2.80;1.88;;;;;;;;;;5090075;28;20036;-50
2022/12/15 06:12:07;;;;;;;2.05;1.35;;;;;;;;;;5099230;28;20046;-47
2022/12/15 06:14:35;;;;;;;2.78;1.55;;;;;;;;;;5102819;28;20062;-46
2022/12/15 06:17:01;;;;;;;1.67;1.50;;;;;;;;;;5090234;28;20084;-48
2022/12/15 06:19:27;;;;;;;1.60;1.27;;;;;;;;;;5108475;28;20110;-46
2022/12/15 06:21:53;;;;;;;1.65;1.48;;;;;;;;;;5125106;27;20467;-49
2022/12/15 06:24:19;;;;;;;1.80;1.55;;;;;;;;;;5107686;28;20119;-51
2022/12/15 06:26:45;;;;;;;2.28;1.40;;;;;;;;;;5100889;28;20020;-48
2022/12/15 06:29:12;;;;;;;1.58;1.38;;;;;;;;;;5106705;28;20027;-49
2022/12/15 06:31:39;;;;;;;2.20;1.50;;;;;;;;;;5104309;28;20409;-46
2022/12/15 06:34:06;;;;;;;1.80;1.25;;;;;;;;;;5107830;28;20032;-47
2022/12/15 06:36:32;;;;;;;2.28;1.52;;;;;;;;;;5108338;28;20110;-47
2022/12/15 06:38:59;;;;;;;3.22;2.00;;;;;;;;;;5108290;28;20035;-47
2022/12/15 06:41:26;;;;;;;2.72;1.67;;;;;;;;;;5108219;28;20019;-48
2022/12/15 06:43:54;;;;;;;2.42;1.60;;;;;;;;;;5108028;28;20023;-50
2022/12/15 06:46:21;;;;;;;3.13;2.00;;;;;;;;;;5105503;27;20023;-48
2022/12/15 06:48:47;;;;;;;3.55;2.20;;;;;;;;;;5103609;28;20035;-48
2022/12/15 06:51:13;;;;;;;3.28;1.90;;;;;;;;;;5104162;28;20055;-49
2022/12/15 06:53:40;;;;;;;2.92;1.90;;;;;;;;;;5106884;28;20116;-49
2022/12/15 06:56:15;;;;;;;2.47;2.05;;;;;;;;;;5107398;28;20588;-50
2022/12/15 06:58:41;;;;;;;2.70;1.98;;;;;;;;;;5106301;28;20031;-49
2022/12/15 07:01:08;;;;;;;3.90;2.20;;;;;;;;;;5106428;28;20020;-48
2022/12/15 07:03:34;;;;;;;3.30;1.95;;;;;;;;;;5105617;28;20134;-49
2022/12/15 07:06:06;;;;;;;2.55;2.00;;;;;;;;;;5106642;28;20518;-47
2022/12/15 07:08:33;;;;;;;2.65;2.20;;;;;;;;;;5106319;28;20567;-49
2022/12/15 07:10:59;;;;;;;2.38;1.80;;;;;;;;;;5106333;28;20072;-50
2022/12/15 07:13:25;;;;;;;2.60;1.90;;;;;;;;;;5105129;28;20036;-50
2022/12/15 07:15:52;;;;;;;3.30;2.10;;;;;;;;;;5100885;28;20031;-49
2022/12/15 07:18:19;;;;;;;3.67;2.42;;;;;;;;;;5106767;28;20031;-49
2022/12/15 07:20:45;;;;;;;3.67;2.10;;;;;;;;;;5109084;28;20114;-50
2022/12/15 07:23:12;;;;;;;4.13;2.90;;;;;;;;;;5105823;28;20092;-48
2022/12/15 07:25:39;;;;;;;3.20;2.13;;;;;;;;;;5111833;28;20815;-50
2022/12/15 07:28:05;;;;;;;3.50;2.47;;;;;;;;;;5111439;28;20030;-51
2022/12/15 07:30:32;;;;;;;2.92;2.10;;;;;;;;;;5110951;28;20023;-49
2022/12/15 07:32:58;;;;;;;3.08;2.13;;;;;;;;;;5111395;28;20051;-51
2022/12/15 07:35:24;;;;;;;2.50;1.90;;;;;;;;;;5111728;28;20040;-49
2022/12/15 07:37:50;;;;;;;2.45;1.73;;;;;;;;;;5111178;28;20092;-46
2022/12/15 07:40:17;;;;;;;2.25;1.90;;;;;;;;;;5111339;28;20035;-48
2022/12/15 07:42:43;;;;;;;3.03;2.35;;;;;;;;;;5111511;28;20065;-50
2022/12/15 07:45:10;;;;;;;2.35;1.63;;;;;;;;;;5108985;28;20030;-47
2022/12/15 07:47:36;;;;;;;3.30;2.03;;;;;;;;;;5110211;28;20024;-49
2022/12/15 07:50:03;;;;;;;2.80;1.90;;;;;;;;;;5109970;28;20032;-50
2022/12/15 07:52:30;;;;;;;2.42;1.83;;;;;;;;;;5110087;28;20020;-47
2022/12/15 07:54:56;;;;;;;3.38;2.40;;;;;;;;;;5110252;28;20520;-48
2022/12/15 07:57:22;;;;;;;2.60;1.90;;;;;;;;;;5109671;28;20534;-46
2022/12/15 07:59:48;;;;;;;3.58;2.55;;;;;;;;;;5109817;28;20532;-49
2022/12/15 08:02:14;;;;;;;2.83;2.28;;;;;;;;;;5109853;28;20062;-47
2022/12/15 08:04:40;;;;;;;3.45;2.25;;;;;;;;;;5109906;28;20079;-48
2022/12/15 08:07:07;;;;;;;3.47;2.38;;;;;;;;;;5110175;27;20418;-49
2022/12/15 08:09:35;;;;;;;3.63;2.50;;;;;;;;;;5109479;28;20057;-48
2022/12/15 08:12:01;;;;;;;3.13;2.47;;;;;;;;;;5109521;28;20051;-47
2022/12/15 08:14:28;;;;;;;2.97;2.30;;;;;;;;;;5110178;28;20039;-49
2022/12/15 08:16:54;;;;;;;4.20;2.60;;;;;;;;;;5108246;28;20027;-49
2022/12/15 08:19:21;;;;;;;3.03;2.42;;;;;;;;;;5106594;28;20043;-48
2022/12/15 08:21:47;;;;;;;4.28;3.00;;;;;;;;;;5106311;28;20040;-48
2022/12/15 08:24:14;;;;;;;3.58;2.58;;;;;;;;;;5108778;28;20027;-47
2022/12/15 08:26:40;;;;;;;3.90;2.70;;;;;;;;;;5109371;28;20035;-47
2022/12/15 08:29:07;;;;;;;3.30;2.55;;;;;;;;;;5109302;28;20027;-48
2022/12/15 08:31:34;;;;;;;3.65;2.67;;;;;;;;;;5107546;28;20497;-49
2022/12/15 08:34:01;;;;;;;3.50;2.40;;;;;;;;;;5090799;28;20039;-52
2022/12/15 08:36:27;;;;;;;4.35;2.90;;;;;;;;;;5108730;28;20024;-50
2022/12/15 08:38:55;;;;;;;4.05;2.95;;;;;;;;;;5109152;28;20421;-50
2022/12/15 08:41:24;;;;;;;3.88;2.80;;;;;;;;;;5109137;28;20020;-48
2022/12/15 08:43:51;;;;;;;3.95;3.17;;;;;;;;;;5108999;28;20065;-47
2022/12/15 08:46:18;;;;;;;3.72;2.78;;;;;;;;;;5108954;28;20094;-50
2022/12/15 08:48:45;;;;;;;3.53;2.78;;;;;;;;;;5109386;28;20038;-52
2022/12/15 08:51:11;;;;;;;4.65;3.28;;;;;;;;;;5108568;28;20027;-49
2022/12/15 08:53:38;;;;;;;4.53;3.20;;;;;;;;;;5109124;28;20413;-50
2022/12/15 08:56:09;;;;;;;5.22;3.30;;;;;;;;;;5108749;28;20035;-49
2022/12/15 08:58:35;;;;;;;4.75;3.20;;;;;;;;;;5108624;28;21225;-48
2022/12/15 09:01:02;;;;;;;4.95;3.40;;;;;;;;;;5108105;28;20042;-50
2022/12/15 09:03:28;;;;;;;4.25;3.08;;;;;;;;;;5108684;28;20019;-47
2022/12/15 09:05:56;;;;;;;4.15;3.30;;;;;;;;;;5108676;28;20058;-48
2022/12/15 09:08:22;;;;;;;4.40;3.08;;;;;;;;;;5108621;28;20406;-48
2022/12/15 09:10:48;;;;;;;5.22;3.60;;;;;;;;;;5108430;28;20552;-49
2022/12/15 09:13:14;;;;;;;5.25;3.75;;;;;;;;;;5108084;28;20043;-50
2022/12/15 09:15:42;;;;;;;3.80;3.05;;;;;;;;;;5108599;28;20024;-49
2022/12/15 09:18:08;;;;;;;5.35;3.70;;;;;;;;;;5108274;28;20100;-50
2022/12/15 09:20:36;;;;;;;4.57;3.33;;;;;;;;;;5108278;28;20173;-50
2022/12/15 09:23:02;;;;;;;4.50;3.10;;;;;;;;;;5108210;28;20023;-51
2022/12/15 09:25:28;;;;;;;4.13;3.25;;;;;;;;;;5105799;28;20020;-49
2022/12/15 09:27:56;;;;;;;3.85;2.95;;;;;;;;;;5087861;28;20247;-46
2022/12/15 09:30:22;;;;;;;4.30;3.15;;;;;;;;;;5087556;28;20024;-47
2022/12/15 09:32:48;;;;;;;3.78;3.13;;;;;;;;;;5087609;28;20085;-48
2022/12/15 09:35:16;;;;;;;4.65;3.42;;;;;;;;;;5087799;28;20033;-48
2022/12/15 09:37:42;;;;;;;4.72;3.28;;;;;;;;;;5087665;28;20111;-47
2022/12/15 09:40:09;;;;;;;4.50;3.47;;;;;;;;;;5087778;28;20106;-50
2022/12/15 09:42:35;;;;;;;4.60;3.45;;;;;;;;;;5086870;28;20518;-49
2022/12/15 09:45:17;;;;;;;3.55;2.63;;;;;;;;;;5087608;28;20016;-51
2022/12/15 09:47:48;;;;;;;3.83;3.33;;;;;;;;;;5087541;28;20028;-47
2022/12/15 09:50:15;;;;;;;3.72;2.83;;;;;;;;;;5087379;28;20028;-50
2022/12/15 09:52:48;;;;;;;3.92;2.80;;;;;;;;;;5087269;28;20090;-50
2022/12/15 09:55:18;;;;;;;4.40;3.22;;;;;;;;;;5087736;28;20039;-47
2022/12/15 09:57:47;;;;;;;3.88;3.10;;;;;;;;;;5087089;28;20609;-48
2022/12/15 10:00:20;;;;;;;3.30;2.50;;;;;;;;;;5087134;28;20021;-51
2022/12/15 10:03:05;;;;;;;4.27;2.57;;;;;;;;;;5087322;28;20032;-46
2022/12/15 10:05:37;;;;;;;4.30;2.83;;;;;;;;;;5087371;28;20039;-48
2022/12/15 10:08:03;;;;;;;3.47;2.50;;;;;;;;;;5087117;28;20031;-49
2022/12/15 10:10:31;;;;;;;3.75;2.78;;;;;;;;;;5086893;28;20464;-50
2022/12/15 10:13:00;;;;;;;3.22;2.42;;;;;;;;;;5087278;28;20020;-47
2022/12/15 10:15:27;;;;;;;4.50;2.92;;;;;;;;;;5087694;28;20032;-49
2022/12/15 10:17:56;;;;;;;4.03;2.42;;;;;;;;;;5087020;28;20024;-50
2022/12/15 10:20:28;;;;;;;3.92;3.03;;;;;;;;;;5086720;28;20044;-50
2022/12/15 10:22:56;;;;;;;4.15;3.00;;;;;;;;;;5087346;28;20020;-49
2022/12/15 10:25:28;;;;;;;3.30;2.40;;;;;;;;;;5086735;28;20081;-49
2022/12/15 10:27:57;;;;;;;3.95;2.72;;;;;;;;;;5087211;28;20016;-48
2022/12/15 10:30:23;;;;;;;4.28;2.50;;;;;;;;;;5086651;28;20058;-48
2022/12/15 10:33:08;;;;;;;3.47;2.95;;;;;;;;;;5086745;28;20280;-47
2022/12/15 10:35:38;;;;;;;4.50;3.10;;;;;;;;;;5086858;28;20410;-48
2022/12/15 10:38:07;;;;;;;6.22;3.92;;;;;;;;;;5086701;28;20162;-50
2022/12/15 10:40:45;;;;;;;5.82;3.78;;;;;;;;;;5086549;28;20027;-47
2022/12/15 10:43:23;;;;;;;5.25;3.80;;;;;;;;;;5086536;28;20103;-47
2022/12/15 10:45:59;;;;;;;7.07;4.82;;;;;;;;;;5086493;28;20375;-49
2022/12/15 10:48:25;;;;;;;7.38;4.75;;;;;;;;;;5086727;28;20031;-48
2022/12/15 10:50:51;;;;;;;7.53;5.20;;;;;;;;;;5068020;28;20040;-48
2022/12/15 10:53:38;;;;;;;9.32;6.45;;;;;;;;;;5085891;28;20024;-48
2022/12/15 10:56:06;;;;;;;12.93;8.18;;;;;;;;;;5086403;28;20538;-50
2022/12/15 10:58:32;;;;;;;11.98;7.90;;;;;;;;;;5086624;28;20491;-47
2022/12/15 11:01:05;;;;;;;9.63;6.63;;;;;;;;;;5086614;28;20028;-45
2022/12/15 11:03:35;;;;;;;10.25;6.45;;;;;;;;;;5086270;28;20440;-47
2022/12/15 11:06:09;;;;;;;10.68;6.55;;;;;;;;;;5086453;28;20024;-48
2022/12/15 11:08:35;;;;;;;8.98;5.70;;;;;;;;;;5086150;28;20510;-47
2022/12/15 11:14:06;;;;;;;6.88;4.72;;;;;;;;;;5086368;28;20086;-46
2022/12/15 11:16:33;;;;;;;6.47;4.28;;;;;;;;;;5086802;28;20028;-46
2022/12/15 11:19:04;;;;;;;5.80;3.97;;;;;;;;;;5086872;28;20051;-46
2022/12/15 11:21:34;;;;;;;5.47;3.75;;;;;;;;;;5086153;28;20487;-47
2022/12/15 11:24:09;;;;;;;5.68;3.90;;;;;;;;;;5086445;28;20035;-50
2022/12/15 11:26:46;;;;;;;3.90;3.00;;;;;;;;;;5086108;28;20028;-48
2022/12/15 11:29:12;;;;;;;4.43;3.00;;;;;;;;;;5099795;28;20035;-47
2022/12/15 11:31:41;;;;;;;6.18;4.07;;;;;;;;;;5106087;28;20062;-48
2022/12/15 11:34:16;;;;;;;8.05;4.50;;;;;;;;;;5097960;28;20031;-50
2022/12/15 11:36:45;;;;;;;7.40;4.22;;;;;;;;;;5087561;28;20099;-50
2022/12/15 11:39:17;;;;;;;7.85;4.35;;;;;;;;;;5086940;28;20024;-46
2022/12/15 11:41:58;;;;;;;8.57;4.80;;;;;;;;;;5084436;28;20024;-52
2022/12/15 11:44:35;;;;;;;8.02;4.43;;;;;;;;;;5085883;28;20020;-46
2022/12/15 11:47:01;;;;;;;9.38;5.07;;;;;;;;;;5085882;28;20055;-51
2022/12/15 11:49:45;;;;;;;8.13;4.82;;;;;;;;;;5086238;28;20649;-51
2022/12/15 11:52:16;;;;;;;8.73;4.78;;;;;;;;;;5085825;28;20698;-51
2022/12/15 11:54:42;;;;;;;6.50;4.20;;;;;;;;;;5085969;28;20024;-48
2022/12/15 11:57:27;;;;;;;8.25;4.55;;;;;;;;;;5086095;28;20082;-49
2022/12/15 12:00:08;;;;;;;6.80;4.15;;;;;;;;;;5095462;28;20027;-50
2022/12/15 12:02:51;;;;;;;7.35;4.13;;;;;;;;;;5103792;28;20027;-47
2022/12/15 12:05:17;;;;;;;7.20;3.90;;;;;;;;;;5104799;28;20016;-51
2022/12/15 12:07:48;;;;;;;4.85;3.10;;;;;;;;;;5110196;28;20059;-47
2022/12/15 12:10:33;;;;;;;5.22;3.30;;;;;;;;;;5109441;28;20023;-50
2022/12/15 12:13:17;;;;;;;4.68;3.00;;;;;;;;;;5109886;28;20152;-51
2022/12/15 12:15:43;;;;;;;5.13;3.13;;;;;;;;;;5109291;28;20077;-50
2022/12/15 12:18:21;;;;;;;4.68;3.08;;;;;;;;;;5109616;28;20032;-51
2022/12/15 12:20:57;;;;;;;3.95;2.95;;;;;;;;;;5091037;28;20022;-47
2022/12/15 12:23:31;;;;;;;4.97;3.20;;;;;;;;;;5109673;28;20448;-51
2022/12/15 12:26:00;;;;;;;4.63;2.88;;;;;;;;;;5109708;28;20030;-49
2022/12/15 12:28:31;;;;;;;7.22;3.70;;;;;;;;;;5109869;28;20409;-50
2022/12/15 12:30:59;;;;;;;4.53;3.38;;;;;;;;;;5109456;28;20509;-50
2022/12/15 12:33:25;;;;;;;4.68;3.00;;;;;;;;;;5109466;28;20028;-47
2022/12/15 12:35:52;;;;;;;5.07;3.25;;;;;;;;;;5109347;28;20092;-51
2022/12/15 12:38:22;;;;;;;4.50;3.25;;;;;;;;;;5108751;28;20036;-50
2022/12/15 12:41:03;;;;;;;4.68;3.13;;;;;;;;;;5113727;27;20031;-48
2022/12/15 12:43:33;;;;;;;5.28;3.08;;;;;;;;;;5110043;28;20015;-50
2022/12/15 12:46:05;;;;;;;4.05;2.85;;;;;;;;;;5109749;28;20031;-52
2022/12/15 12:48:34;;;;;;;4.13;2.70;;;;;;;;;;5109906;28;20130;-50
2022/12/15 12:51:12;;;;;;;4.13;2.92;;;;;;;;;;5106233;28;20035;-48
2022/12/15 12:53:38;;;;;;;4.55;3.22;;;;;;;;;;5090670;28;20502;-48
2022/12/15 12:56:04;;;;;;;5.40;4.00;;;;;;;;;;5108598;28;20081;-49
2022/12/15 12:58:36;;;;;;;4.90;3.42;;;;;;;;;;5108854;28;20515;-49
2022/12/15 13:01:22;;;;;;;4.57;3.30;;;;;;;;;;5108850;28;20059;-48
2022/12/15 13:04:05;;;;;;;5.13;3.13;;;;;;;;;;5091562;28;20032;-50
2022/12/15 13:06:34;;;;;;;3.60;2.80;;;;;;;;;;5108639;28;20019;-49
2022/12/15 13:09:20;;;;;;;3.63;3.05;;;;;;;;;;5108513;28;20028;-49
2022/12/15 13:11:51;;;;;;;4.68;3.40;;;;;;;;;;5107976;28;20415;-51
2022/12/15 13:14:25;;;;;;;4.93;3.58;;;;;;;;;;5108524;28;20183;-48
2022/12/15 13:16:55;;;;;;;4.07;3.03;;;;;;;;;;5107557;28;20118;-50
2022/12/15 13:19:40;;;;;;;4.80;3.42;;;;;;;;;;5108502;28;20030;-49
2022/12/15 13:22:22;;;;;;;3.83;3.13;;;;;;;;;;5108373;28;20054;-49
2022/12/15 13:24:50;;;;;;;3.97;3.28;;;;;;;;;;5108199;28;20094;-51
2022/12/15 13:27:17;;;;;;;5.60;3.60;;;;;;;;;;5108094;28;20184;-48
2022/12/15 13:30:13;;;;;;;4.88;3.58;;;;;;;;;;5108459;28;20102;-50
2022/12/15 13:32:43;;;;;;;5.50;4.15;;;;;;;;;;5107215;28;20031;-51
2022/12/15 13:35:12;;;;;;;4.43;3.17;;;;;;;;;;5109291;28;20027;-48
2022/12/15 13:37:47;;;;;;;4.18;3.20;;;;;;;;;;5108987;28;20027;-49
2022/12/15 13:40:37;;;;;;;4.75;3.40;;;;;;;;;;5106969;28;20497;-51
2022/12/15 13:43:03;;;;;;;3.72;2.65;;;;;;;;;;5091119;28;20115;-47
2022/12/15 13:45:34;;;;;;;4.93;3.63;;;;;;;;;;5109215;28;20664;-50
2022/12/15 13:48:01;;;;;;;5.05;3.33;;;;;;;;;;5109350;28;20020;-49
2022/12/15 13:50:32;;;;;;;3.83;3.10;;;;;;;;;;5109238;28;20027;-49
2022/12/15 13:53:02;;;;;;;3.85;2.97;;;;;;;;;;5109029;28;20098;-49
2022/12/15 13:55:34;;;;;;;3.80;3.00;;;;;;;;;;5103282;28;20019;-50
2022/12/15 13:58:04;;;;;;;3.47;2.97;;;;;;;;;;5108384;28;20402;-49
2022/12/15 14:00:31;;;;;;;3.67;3.13;;;;;;;;;;5106397;28;20063;-49
2022/12/15 14:03:05;;;;;;;4.60;3.03;;;;;;;;;;5109593;28;20031;-48
2022/12/15 14:05:31;;;;;;;3.40;2.88;;;;;;;;;;5103849;28;20107;-47
2022/12/15 14:08:00;;;;;;;2.97;2.67;;;;;;;;;;5107601;28;20028;-50
2022/12/15 14:10:41;;;;;;;4.60;2.72;;;;;;;;;;5121868;27;20027;-49
2022/12/15 14:13:10;;;;;;;3.20;2.60;;;;;;;;;;5108583;28;20057;-50
2022/12/15 14:15:40;;;;;;;3.20;2.65;;;;;;;;;;5109906;28;20020;-52
2022/12/15 14:18:06;;;;;;;3.13;2.50;;;;;;;;;;5108806;28;20115;-48
2022/12/15 14:20:38;;;;;;;3.78;2.15;;;;;;;;;;5110737;28;20114;-50
2022/12/15 14:23:18;;;;;;;2.60;2.30;;;;;;;;;;5104399;28;20027;-51
2022/12/15 14:25:52;;;;;;;5.55;3.00;;;;;;;;;;5109952;28;20020;-49
2022/12/15 14:28:25;;;;;;;4.10;3.22;;;;;;;;;;5109826;28;20024;-50
2022/12/15 14:30:52;;;;;;;3.50;2.70;;;;;;;;;;5107971;28;20026;-50
2022/12/15 14:33:18;;;;;;;4.22;2.97;;;;;;;;;;5109410;28;20039;-50
2022/12/15 14:35:52;;;;;;;3.55;2.75;;;;;;;;;;5109092;28;20027;-51
2022/12/15 14:38:22;;;;;;;3.58;2.78;;;;;;;;;;5109462;28;20028;-50
2022/12/15 14:40:49;;;;;;;4.60;2.80;;;;;;;;;;5109322;28;20035;-49
2022/12/15 14:43:20;;;;;;;3.13;2.53;;;;;;;;;;5108933;28;20024;-48
2022/12/15 14:45:48;;;;;;;3.38;2.42;;;;;;;;;;5121751;27;20031;-48
2022/12/15 14:48:28;;;;;;;3.55;2.75;;;;;;;;;;5122700;27;20287;-49
2022/12/15 14:50:58;;;;;;;3.13;2.40;;;;;;;;;;5112112;27;20023;-50
2022/12/15 14:53:25;;;;;;;3.53;2.28;;;;;;;;;;5121424;27;20399;-50
2022/12/15 14:55:52;;;;;;;3.03;2.08;;;;;;;;;;5106805;28;20039;-50
2022/12/15 14:58:26;;;;;;;2.25;1.80;;;;;;;;;;5106698;28;20039;-51
2022/12/15 15:00:53;;;;;;;2.10;1.70;;;;;;;;;;5107124;28;20028;-52
2022/12/15 15:03:24;;;;;;;2.08;1.50;;;;;;;;;;5108050;28;20465;-49
2022/12/15 15:05:57;;;;;;;2.50;1.50;;;;;;;;;;5102738;28;20039;-51
2022/12/15 15:08:34;;;;;;;1.85;1.40;;;;;;;;;;5102034;28;20023;-50
2022/12/15 15:11:03;;;;;;;2.03;1.33;;;;;;;;;;5108157;28;20062;-52
2022/12/15 15:13:35;;;;;;;2.65;1.52;;;;;;;;;;5108439;28;20563;-49
2022/12/15 15:16:04;;;;;;;1.90;1.45;;;;;;;;;;5102652;28;20043;-49
2022/12/15 15:18:30;;;;;;;1.77;1.50;;;;;;;;;;5109193;28;20623;-51
2022/12/15 15:20:59;;;;;;;1.98;1.60;;;;;;;;;;5107133;28;20036;-51
2022/12/15 15:23:25;;;;;;;2.17;1.55;;;;;;;;;;5104851;28;20024;-51
2022/12/15 15:25:55;;;;;;;1.40;1.30;;;;;;;;;;5092143;28;20411;-51
2022/12/15 15:28:23;;;;;;;2.20;1.67;;;;;;;;;;5088988;28;20035;-50
2022/12/15 15:30:58;;;;;;;1.33;1.23;;;;;;;;;;5101433;28;20054;-48
2022/12/15 15:33:24;;;;;;;1.30;1.20;;;;;;;;;;5097847;28;20498;-49
2022/12/15 15:35:52;;;;;;;2.03;1.65;;;;;;;;;;5109052;28;20028;-50
2022/12/15 15:38:23;;;;;;;2.40;1.55;;;;;;;;;;5109190;28;20027;-48
2022/12/15 15:40:54;;;;;;;1.30;1.20;;;;;;;;;;5108151;28;20042;-50
2022/12/15 15:43:20;;;;;;;1.23;0.98;;;;;;;;;;5111966;27;20027;-50
2022/12/15 15:45:47;;;;;;;1.77;1.45;;;;;;;;;;5110126;27;20490;-48
2022/12/15 15:48:20;;;;;;;1.30;1.20;;;;;;;;;;5112058;28;20057;-46
2022/12/15 15:50:47;;;;;;;1.30;1.17;;;;;;;;;;5107967;28;20031;-51
2022/12/15 15:53:18;;;;;;;1.75;1.40;;;;;;;;;;5112336;28;20035;-51
2022/12/15 15:55:45;;;;;;;1.42;1.23;;;;;;;;;;5104227;28;20030;-50
2022/12/15 15:58:12;;;;;;;1.70;1.20;;;;;;;;;;5112489;28;20031;-47
2022/12/15 16:00:38;;;;;;;1.48;1.38;;;;;;;;;;5111488;28;20040;-50
2022/12/15 16:03:05;;;;;;;1.63;1.40;;;;;;;;;;5118451;27;20486;-49
2022/12/15 16:05:31;;;;;;;1.65;1.35;;;;;;;;;;5112467;28;20028;-49
2022/12/15 16:07:58;;;;;;;1.08;0.98;;;;;;;;;;5084089;28;20028;-48
2022/12/15 16:10:24;;;;;;;1.10;1.00;;;;;;;;;;5110039;28;20069;-47
2022/12/15 16:12:51;;;;;;;1.73;1.10;;;;;;;;;;5112201;28;20493;-51
2022/12/15 16:15:22;;;;;;;1.40;1.10;;;;;;;;;;5110911;28;20028;-51
2022/12/15 16:17:48;;;;;;;1.33;1.23;;;;;;;;;;5114365;27;20048;-47
2022/12/15 16:20:15;;;;;;;1.20;1.05;;;;;;;;;;5106837;27;20428;-47
2022/12/15 16:22:43;;;;;;;1.30;1.20;;;;;;;;;;5107401;28;20081;-49
2022/12/15 16:25:13;;;;;;;2.40;1.63;;;;;;;;;;5101943;27;20068;-47
2022/12/15 16:27:41;;;;;;;3.83;2.53;;;;;;;;;;5102690;28;20019;-47
2022/12/15 16:30:25;;;;;;;3.13;2.42;;;;;;;;;;5106129;27;20070;-51
2022/12/15 16:32:52;;;;;;;3.20;2.50;;;;;;;;;;5114053;27;20095;-47
2022/12/15 16:35:18;;;;;;;3.40;2.58;;;;;;;;;;5118824;27;20107;-51
2022/12/15 16:37:45;;;;;;;2.53;2.05;;;;;;;;;;5111810;28;20081;-49
2022/12/15 16:40:19;;;;;;;3.05;2.00;;;;;;;;;;5115554;27;20451;-47
2022/12/15 16:42:51;;;;;;;3.03;1.90;;;;;;;;;;5118036;27;20031;-50
2022/12/15 16:45:18;;;;;;;1.90;1.70;;;;;;;;;;5118036;27;20532;-50
2022/12/15 16:47:45;;;;;;;4.50;1.90;;;;;;;;;;5111571;28;20110;-47
2022/12/15 16:50:12;;;;;;;3.08;2.17;;;;;;;;;;5090326;28;20032;-48
2022/12/15 16:52:39;;;;;;;2.42;1.88;;;;;;;;;;5089989;28;20032;-51
2022/12/15 16:55:05;;;;;;;2.88;2.10;;;;;;;;;;5108345;28;20417;-48
2022/12/15 16:57:32;;;;;;;3.22;2.08;;;;;;;;;;5111277;28;20102;-48
2022/12/15 16:59:58;;;;;;;3.17;2.08;;;;;;;;;;5110476;28;20024;-48
2022/12/15 17:02:28;;;;;;;4.10;2.35;;;;;;;;;;5111141;28;20518;-50
2022/12/15 17:04:54;;;;;;;5.88;2.80;;;;;;;;;;5103078;27;20506;-50
2022/12/15 17:07:21;;;;;;;6.07;2.78;;;;;;;;;;5110170;27;20032;-47
2022/12/15 17:09:49;;;;;;;6.05;2.97;;;;;;;;;;5099169;28;20078;-51
2022/12/15 17:12:19;;;;;;;6.25;3.42;;;;;;;;;;5108523;28;20031;-49
2022/12/15 17:14:45;;;;;;;6.32;3.47;;;;;;;;;;5110842;28;20055;-46
2022/12/15 17:17:15;;;;;;;5.40;3.08;;;;;;;;;;5110692;28;20051;-50
2022/12/15 17:19:42;;;;;;;6.85;3.03;;;;;;;;;;5110209;28;20532;-48
2022/12/15 17:22:11;;;;;;;7.85;3.28;;;;;;;;;;5109853;28;20072;-50
2022/12/15 17:24:37;;;;;;;5.95;2.67;;;;;;;;;;5108832;28;20016;-49
2022/12/15 17:27:04;;;;;;;9.10;4.32;;;;;;;;;;5109453;28;20023;-47
2022/12/15 17:29:30;;;;;;;8.48;3.78;;;;;;;;;;5110021;28;20478;-49
2022/12/15 17:31:56;;;;;;;6.35;3.75;;;;;;;;;;5110111;28;20059;-51
2022/12/15 17:34:26;;;;;;;7.00;3.88;;;;;;;;;;5109866;28;20080;-47
2022/12/15 17:36:52;;;;;;;8.52;4.60;;;;;;;;;;5109878;28;20383;-51
2022/12/15 17:39:19;;;;;;;7.63;4.05;;;;;;;;;;5109379;28;20024;-51
2022/12/15 17:41:45;;;;;;;7.68;4.03;;;;;;;;;;5109694;28;20032;-47
2022/12/15 17:44:31;;;;;;;7.35;3.40;;;;;;;;;;5109764;28;20382;-48
2022/12/15 17:46:57;;;;;;;6.50;3.40;;;;;;;;;;5109706;28;20103;-48
2022/12/15 17:49:24;;;;;;;5.50;3.20;;;;;;;;;;5109551;28;20023;-50
2022/12/15 17:51:50;;;;;;;6.03;3.28;;;;;;;;;;5109522;28;20297;-49
2022/12/15 17:54:17;;;;;;;5.03;2.65;;;;;;;;;;5109063;28;20444;-47
2022/12/15 17:56:45;;;;;;;3.40;2.13;;;;;;;;;;5109872;28;20127;-48
2022/12/15 17:59:12;;;;;;;4.18;2.35;;;;;;;;;;5109375;28;20390;-50
2022/12/15 18:01:38;;;;;;;5.82;3.58;;;;;;;;;;5109215;28;20041;-50
2022/12/15 18:04:05;;;;;;;4.68;2.53;;;;;;;;;;5108926;28;20028;-49
2022/12/15 18:06:31;;;;;;;3.90;2.75;;;;;;;;;;5108379;28;20558;-48
2022/12/15 18:08:57;;;;;;;4.05;2.72;;;;;;;;;;5109493;28;20422;-48
2022/12/15 18:11:27;;;;;;;3.20;2.08;;;;;;;;;;5102156;28;20061;-49
2022/12/15 18:13:53;;;;;;;3.70;2.47;;;;;;;;;;5109594;28;20099;-50
2022/12/15 18:16:19;;;;;;;2.97;2.17;;;;;;;;;;5108622;28;20049;-50
2022/12/15 18:18:46;;;;;;;3.83;2.28;;;;;;;;;;5107240;28;20430;-52
2022/12/15 18:21:16;;;;;;;2.80;1.85;;;;;;;;;;5088380;28;20027;-52
2022/12/15 18:23:44;;;;;;;3.17;1.88;;;;;;;;;;5106147;28;20494;-51
2022/12/15 18:26:14;;;;;;;2.75;1.90;;;;;;;;;;5106056;28;20038;-48
2022/12/15 18:28:40;;;;;;;2.80;1.70;;;;;;;;;;5106146;28;20398;-46
2022/12/15 18:31:06;;;;;;;2.95;1.80;;;;;;;;;;5087540;28;20114;-51
2022/12/15 18:33:32;;;;;;;2.53;1.65;;;;;;;;;;5106209;28;20325;-50
2022/12/15 18:35:58;;;;;;;2.58;1.90;;;;;;;;;;5106038;28;20023;-50
2022/12/15 18:38:26;;;;;;;4.63;2.60;;;;;;;;;;5105780;28;20169;-51
2022/12/15 18:40:53;;;;;;;4.72;2.90;;;;;;;;;;5087650;28;20028;-52
2022/12/15 18:43:23;;;;;;;4.43;2.60;;;;;;;;;;5104989;28;20128;-50
2022/12/15 18:45:51;;;;;;;4.65;2.67;;;;;;;;;;5105787;28;20078;-50
2022/12/15 18:48:18;;;;;;;4.18;2.42;;;;;;;;;;5105577;28;20023;-49
2022/12/15 18:50:45;;;;;;;4.47;2.60;;;;;;;;;;5105928;28;20058;-51
2022/12/15 18:53:18;;;;;;;4.45;2.72;;;;;;;;;;5105148;28;20080;-49
2022/12/15 18:55:46;;;;;;;3.47;2.42;;;;;;;;;;5105030;28;20028;-48
2022/12/15 18:58:26;;;;;;;4.55;2.50;;;;;;;;;;5104921;28;20110;-48
2022/12/15 19:00:53;;;;;;;4.40;2.63;;;;;;;;;;5104966;28;20019;-50
2022/12/15 19:03:20;;;;;;;3.05;2.00;;;;;;;;;;5104723;28;20910;-49
2022/12/15 19:05:48;;;;;;;3.85;2.25;;;;;;;;;;5104566;28;20106;-49
2022/12/15 19:08:24;;;;;;;5.25;3.08;;;;;;;;;;5104529;28;20057;-51
2022/12/15 19:10:56;;;;;;;5.78;3.47;;;;;;;;;;5085794;28;20081;-50
2022/12/15 19:13:24;;;;;;;5.03;3.22;;;;;;;;;;5104724;28;20054;-48
2022/12/15 19:15:51;;;;;;;3.25;2.33;;;;;;;;;;5084060;28;20138;-49
2022/12/15 19:24:04;;;;;;;4.65;2.50;;;;;;;;;;5110068;28;20461;-51
2022/12/15 19:26:30;;;;;;;3.58;2.25;;;;;;;;;;5109444;28;20502;-47
2022/12/15 19:28:56;;;;;;;2.90;2.20;;;;;;;;;;5110908;28;20035;-48
2022/12/15 19:31:22;;;;;;;7.95;4.18;;;;;;;;;;5109502;28;20045;-49
2022/12/15 19:33:48;;;;;;;9.43;4.80;;;;;;;;;;5091408;28;20032;-47
2022/12/15 19:36:16;;;;;;;13.43;6.35;;;;;;;;;;5110643;28;20509;-47
2022/12/15 19:38:43;;;;;;;11.57;5.53;;;;;;;;;;5092400;28;20070;-48
2022/12/15 19:41:13;;;;;;;13.07;6.55;;;;;;;;;;5111009;28;20088;-49
2022/12/15 19:43:39;;;;;;;10.70;5.57;;;;;;;;;;5110677;28;20550;-48
2022/12/15 19:46:05;;;;;;;11.13;5.53;;;;;;;;;;5110602;28;20066;-49
2022/12/15 19:48:31;;;;;;;7.82;4.35;;;;;;;;;;5109930;28;20019;-47
2022/12/15 19:50:57;;;;;;;7.40;3.90;;;;;;;;;;5108801;28;20475;-51
2022/12/15 19:53:24;;;;;;;6.35;3.70;;;;;;;;;;5108803;28;20106;-49
2022/12/15 19:55:54;;;;;;;4.20;3.25;;;;;;;;;;5108636;28;20059;-52
2022/12/15 19:58:23;;;;;;;5.22;3.20;;;;;;;;;;5108556;28;20422;-48
2022/12/15 20:00:50;;;;;;;3.28;2.30;;;;;;;;;;5108627;28;20038;-50
2022/12/15 20:03:17;;;;;;;4.63;2.78;;;;;;;;;;5107694;28;20083;-50
2022/12/15 20:05:43;;;;;;;5.05;3.33;;;;;;;;;;5108831;28;20066;-51
2022/12/15 20:08:16;;;;;;;4.82;3.08;;;;;;;;;;5106136;28;20114;-48
2022/12/15 20:10:43;;;;;;;4.72;3.17;;;;;;;;;;5107096;28;20031;-51
2022/12/15 20:13:11;;;;;;;4.97;3.08;;;;;;;;;;5107740;28;20103;-47
2022/12/15 20:15:37;;;;;;;4.63;2.90;;;;;;;;;;5108664;28;20028;-51
2022/12/15 20:18:03;;;;;;;6.10;3.60;;;;;;;;;;5089786;28;20031;-49
2022/12/15 20:20:31;;;;;;;5.70;3.75;;;;;;;;;;5089934;28;20031;-48
2022/12/15 20:22:59;;;;;;;5.72;3.38;;;;;;;;;;5108890;28;20027;-47
2022/12/15 20:25:27;;;;;;;5.80;3.78;;;;;;;;;;5108185;28;20451;-49
2022/12/15 20:27:53;;;;;;;4.70;3.15;;;;;;;;;;5086777;28;20024;-47
2022/12/15 20:30:21;;;;;;;4.07;2.85;;;;;;;;;;5101418;28;20031;-47
2022/12/15 20:32:47;;;;;;;4.28;2.97;;;;;;;;;;5089854;28;20031;-48
2022/12/15 20:35:17;;;;;;;3.45;2.58;;;;;;;;;;5107869;28;20027;-50
2022/12/15 20:37:45;;;;;;;2.78;2.00;;;;;;;;;;5089548;28;20084;-48
2022/12/15 20:40:20;;;;;;;4.03;2.85;;;;;;;;;;5108424;28;20046;-49
2022/12/15 20:42:46;;;;;;;4.70;3.25;;;;;;;;;;5107729;28;20058;-50
2022/12/15 20:45:14;;;;;;;3.47;2.63;;;;;;;;;;5108242;28;20023;-48
2022/12/15 20:47:42;;;;;;;2.80;2.25;;;;;;;;;;5089516;28;20161;-49
2022/12/15 20:50:22;;;;;;;2.70;2.10;;;;;;;;;;5108050;28;20027;-47
2022/12/15 20:52:48;;;;;;;2.85;2.03;;;;;;;;;;5089138;28;20024;-51
2022/12/15 20:55:15;;;;;;;3.10;1.90;;;;;;;;;;5089140;28;20633;-46
2022/12/15 20:57:41;;;;;;;2.03;1.75;;;;;;;;;;5107560;28;20103;-48
2022/12/15 21:00:07;;;;;;;2.20;1.70;;;;;;;;;;5107124;28;20095;-48
2022/12/15 21:02:34;;;;;;;1.67;1.50;;;;;;;;;;5088887;28;20813;-50
2022/12/15 21:05:02;;;;;;;1.90;1.73;;;;;;;;;;5089161;28;20020;-47